Main page
METAR-TAF:

METAR-TAF

Airports :

Oral Ak Zhol Airport

Oral, Kazakhstan

latitude: 51-15N, longitude: 051-17E, elevation: 36 m

Current weather observation

The report was made 1 hour and 3 minutes ago, at 21:00 UTC
Wind 4 kt from the North/Northwest
Temperature -3°C
Humidity 100%
Pressure 1022 hPa
Visibility: 2200 m
Broken clouds at a height of 800 ft
Overcast at a height of 3000 ft
mist

METAR: UARR 202100Z 34002MPS 2200 BR BKN008 OVC030 M03/M03 Q1022 R04/CLRD70 NOSIG RMK QFE763/1017

Time: 03:03 (22:03 UTC)

Forecast

The report was made 2 hours and 2 minutes ago, at 20:01 UTC
Forecast valid from 20 at 21 UTC to 21 at 06 UTC
Wind 6 kt from the North
Visibility: 3100 m
Broken clouds at a height of 1100 ft
mist
Temporary
from 20 at 21 UTC to 21 at 03 UTC
Visibility: 0200 m
at a height of 200 ft
freezing fog
Temporary
from 21 at 03 UTC to 21 at 06 UTC
Visibility: 0400 m
at a height of 200 ft
freezing fog

TAF: UARR 202001Z 2021/2106 35003MPS 3100 BR BKN011 TEMPO 2021/2103 0200 FZFG VV002 TEMPO 2103/2106 0400 FZFG VV002

Weather observations and forecasts of more than 4000 airports (METAR and TAF reports).

The available stations are represented by yellow and red dots on the map.

Hover mouse over dot to see the name of the station.

Then click to see weather observations and forecasts.

To change the map : click on the green buttons with a black cross to zoom in, on the green button with a dash to zoom out, or on the green arrows for adjacent maps.


METAR-TAF: